Time;durP1;ratioP1;P1;durP2;ratioP2;P2;SDS_P1;SDS_P2;PMS_P1;PMS_P2;Temp;Humidity;BMP_temperature;BMP_pressure;BME280_temperature;BME280_humidity;BME280_pressure;Samples;Min_cycle;Max_cycle;Signal;HPM_P1;HPM_P2
2021/12/07 00:00:23;;;;;;;44.78;23.08;;;;;;;0.37;100.00;100798.06;10136267;28;20732;-70
2021/12/07 00:05:20;;;;;;;42.00;21.17;;;;;;;0.22;100.00;100788.97;10138239;28;20046;-71
2021/12/07 00:10:17;;;;;;;45.75;24.63;;;;;;;0.30;100.00;100793.91;10130544;28;20489;-70
2021/12/07 00:15:17;;;;;;;47.13;23.88;;;;;;;0.26;100.00;100784.72;10136187;28;20463;-71
2021/12/07 00:20:21;;;;;;;48.05;25.73;;;;;;;0.25;100.00;100772.31;10127932;28;20047;-70
2021/12/07 00:25:18;;;;;;;47.17;24.02;;;;;;;0.24;100.00;100771.50;10119086;28;20043;-72
2021/12/07 00:30:15;;;;;;;43.60;24.45;;;;;;;0.26;100.00;100757.84;10122944;28;20394;-71
2021/12/07 00:40:29;;;;;;;44.80;23.38;;;;;;;0.08;100.00;100735.53;10133730;28;20098;-72
2021/12/07 00:45:26;;;;;;;47.03;25.02;;;;;;;0.13;100.00;100738.28;10130910;28;20078;-71
2021/12/07 00:50:24;;;;;;;47.80;25.55;;;;;;;0.28;100.00;100744.91;10130245;28;20070;-71
2021/12/07 00:55:26;;;;;;;52.55;25.65;;;;;;;0.19;100.00;100745.38;10125661;28;20625;-69
2021/12/07 01:00:30;;;;;;;46.13;24.00;;;;;;;0.23;100.00;100742.16;10125754;28;20090;-71
2021/12/07 01:05:31;;;;;;;45.90;24.33;;;;;;;0.27;100.00;100735.25;10119262;28;20472;-71
2021/12/07 01:26:12;;;;;;;49.72;27.00;;;;;;;0.15;100.00;100729.97;10129933;28;20504;-71
2021/12/07 01:31:20;;;;;;;46.40;25.48;;;;;;;0.29;100.00;100725.84;10132761;28;20046;-70
2021/12/07 01:36:37;;;;;;;51.88;26.73;;;;;;;0.27;100.00;100727.97;10130761;28;20049;-71
2021/12/07 01:42:47;;;;;;;46.78;25.27;;;;;;;0.18;100.00;100719.53;10130825;28;20575;-70
2021/12/07 02:02:15;;;;;;;45.30;25.25;;;;;;;0.14;100.00;100704.97;10133490;28;20126;-71
2021/12/07 02:07:15;;;;;;;47.53;25.50;;;;;;;-0.11;100.00;100710.00;10133953;28;20137;-70
2021/12/07 02:12:17;;;;;;;46.92;25.58;;;;;;;0.05;100.00;100708.31;10141476;28;20085;-70
2021/12/07 02:17:20;;;;;;;52.28;27.48;;;;;;;0.12;100.00;100698.22;10131011;28;20537;-70
2021/12/07 02:22:18;;;;;;;47.28;24.77;;;;;;;0.07;100.00;100703.50;10132434;28;20046;-70
2021/12/07 02:27:14;;;;;;;48.92;25.27;;;;;;;0.19;100.00;100705.03;10139234;28;20529;-70
2021/12/07 02:32:11;;;;;;;54.05;26.88;;;;;;;0.08;100.00;100713.22;10126925;28;20038;-70
2021/12/07 02:37:08;;;;;;;54.67;28.35;;;;;;;0.24;100.00;100716.94;10124509;28;20092;-70
2021/12/07 02:42:05;;;;;;;49.35;25.88;;;;;;;0.18;100.00;100722.22;10127940;28;20046;-71
2021/12/07 02:47:02;;;;;;;49.75;25.80;;;;;;;0.22;100.00;100719.03;10139800;28;20063;-69
2021/12/07 02:51:59;;;;;;;50.25;27.70;;;;;;;0.35;100.00;100718.69;10125695;28;20077;-70
2021/12/07 02:56:55;;;;;;;48.53;26.73;;;;;;;0.16;100.00;100727.06;10136421;28;20509;-69
2021/12/07 03:02:00;;;;;;;52.53;27.73;;;;;;;0.30;100.00;100729.34;10131704;28;20609;-69
2021/12/07 03:28:20;;;;;;;50.28;26.60;;;;;;;0.37;100.00;100743.44;10117319;28;20059;-70
2021/12/07 03:33:16;;;;;;;50.03;25.45;;;;;;;0.32;100.00;100738.00;10154589;28;20042;-71
2021/12/07 03:38:13;;;;;;;50.00;26.63;;;;;;;0.35;100.00;100740.22;10121872;28;20045;-72
2021/12/07 03:43:10;;;;;;;51.80;26.77;;;;;;;0.37;100.00;100738.88;10121836;28;20046;-70
2021/12/07 03:48:08;;;;;;;81.68;30.35;;;;;;;0.43;100.00;100736.25;10128538;28;20574;-71
2021/12/07 03:53:05;;;;;;;54.95;27.67;;;;;;;0.47;100.00;100742.78;10129692;28;20046;-71
2021/12/07 03:58:02;;;;;;;49.22;26.73;;;;;;;0.48;100.00;100745.19;10122464;28;20046;-71
2021/12/07 04:03:02;;;;;;;48.35;25.77;;;;;;;0.42;100.00;100740.84;10116586;28;20625;-71
2021/12/07 04:07:59;;;;;;;54.35;27.60;;;;;;;0.54;100.00;100749.59;10125637;28;20046;-71
2021/12/07 04:12:56;;;;;;;50.70;26.48;;;;;;;0.51;100.00;100749.25;10117091;28;20110;-71
2021/12/07 04:17:52;;;;;;;47.72;25.27;;;;;;;0.56;100.00;100752.84;10134155;28;20054;-71
2021/12/07 04:22:49;;;;;;;46.80;27.27;;;;;;;0.60;100.00;100753.97;10129230;28;20158;-71
2021/12/07 04:27:46;;;;;;;48.45;27.75;;;;;;;0.68;100.00;100759.97;10127165;28;20047;-71
2021/12/07 04:32:43;;;;;;;48.83;25.23;;;;;;;0.59;100.00;100756.91;10113922;28;20075;-71
2021/12/07 04:37:40;;;;;;;52.00;28.10;;;;;;;0.45;100.00;100756.47;10124390;28;20082;-71
2021/12/07 04:42:37;;;;;;;53.85;28.52;;;;;;;0.53;100.00;100753.31;10116738;28;20102;-69
2021/12/07 04:47:51;;;;;;;49.58;25.33;;;;;;;0.38;100.00;100756.66;10133689;28;20046;-70
2021/12/07 04:58:03;;;;;;;46.50;25.58;;;;;;;0.52;100.00;100746.34;10137410;28;20500;-70
2021/12/07 05:03:04;;;;;;;51.83;27.73;;;;;;;0.54;100.00;100749.59;10129720;28;20398;-71
2021/12/07 05:08:06;;;;;;;52.35;26.48;;;;;;;0.59;100.00;100757.72;10123860;28;20047;-69
2021/12/07 05:39:00;;;;;;;50.20;26.58;;;;;;;0.57;100.00;100751.78;10100160;28;20051;-68
2021/12/07 05:43:56;;;;;;;49.78;26.25;;;;;;;0.51;100.00;100747.41;10115811;28;20528;-67
2021/12/07 05:48:52;;;;;;;44.53;25.40;;;;;;;0.62;100.00;100746.44;10118890;28;20519;-69
2021/12/07 05:53:49;;;;;;;50.42;26.17;;;;;;;0.73;100.00;100752.78;10096364;28;20106;-69
2021/12/07 05:58:46;;;;;;;47.33;26.08;;;;;;;0.77;100.00;100763.84;10089651;28;20101;-68
2021/12/07 06:03:42;;;;;;;53.42;27.60;;;;;;;0.65;100.00;100766.69;10093486;28;20101;-68
2021/12/07 06:08:43;;;;;;;44.60;25.23;;;;;;;0.75;100.00;100774.88;10088747;28;20052;-67
2021/12/07 06:13:39;;;;;;;47.83;26.27;;;;;;;0.60;100.00;100775.50;10104121;28;20038;-69
2021/12/07 06:18:36;;;;;;;44.00;23.77;;;;;;;0.77;100.00;100780.00;10105239;28;20062;-69
2021/12/07 06:23:33;;;;;;;46.40;25.75;;;;;;;0.72;100.00;100788.84;10118441;28;20113;-69
2021/12/07 06:28:30;;;;;;;44.03;23.35;;;;;;;0.73;100.00;100795.03;10131253;28;20426;-69
2021/12/07 06:33:27;;;;;;;43.75;23.42;;;;;;;0.66;100.00;100802.47;10123701;28;20552;-69
2021/12/07 06:38:27;;;;;;;47.67;24.20;;;;;;;0.76;100.00;100805.28;10136141;28;20043;-69
2021/12/07 06:43:24;;;;;;;46.22;24.33;;;;;;;0.78;100.00;100797.78;10128069;28;20074;-70
2021/12/07 06:48:21;;;;;;;44.72;23.75;;;;;;;0.66;100.00;100805.16;10133729;28;20086;-69
2021/12/07 06:53:17;;;;;;;43.80;23.30;;;;;;;0.73;100.00;100803.09;10118982;28;20059;-70
2021/12/07 06:58:14;;;;;;;47.08;24.75;;;;;;;0.74;100.00;100807.41;10104647;28;20047;-69
2021/12/07 07:03:10;;;;;;;45.80;23.75;;;;;;;0.54;100.00;100816.03;10110093;28;20046;-69
2021/12/07 07:08:07;;;;;;;45.17;24.70;;;;;;;0.65;100.00;100825.03;10111309;28;20053;-69
2021/12/07 07:13:04;;;;;;;45.92;24.42;;;;;;;0.74;100.00;100828.94;10113634;28;20412;-69
2021/12/07 07:18:00;;;;;;;48.38;24.60;;;;;;;0.83;100.00;100835.50;10123494;28;20567;-70
2021/12/07 07:22:57;;;;;;;47.15;25.15;;;;;;;0.89;100.00;100842.59;10119783;28;20050;-69
2021/12/07 07:27:53;;;;;;;45.30;23.75;;;;;;;0.79;100.00;100845.16;10128225;28;20070;-69
2021/12/07 07:32:50;;;;;;;44.08;23.40;;;;;;;0.82;100.00;100852.75;10118290;28;20085;-69
2021/12/07 07:37:47;;;;;;;44.80;22.75;;;;;;;0.93;100.00;100854.50;10140564;28;20081;-70
2021/12/07 07:42:44;;;;;;;41.38;23.90;;;;;;;0.95;100.00;100852.38;10117642;28;20055;-69
2021/12/07 07:47:41;;;;;;;47.25;22.55;;;;;;;0.85;100.00;100852.22;10130352;28;20540;-69
2021/12/07 07:52:38;;;;;;;43.70;24.35;;;;;;;0.83;100.00;100857.03;10117762;28;20054;-70
2021/12/07 07:57:35;;;;;;;43.97;23.23;;;;;;;0.90;100.00;100864.94;10134467;28;20062;-69
2021/12/07 08:02:31;;;;;;;47.65;25.77;;;;;;;0.96;100.00;100864.75;10120078;28;20066;-69
2021/12/07 08:07:28;;;;;;;47.60;24.20;;;;;;;0.79;100.00;100858.59;10119160;28;20428;-70
2021/12/07 08:12:25;;;;;;;44.70;24.38;;;;;;;0.88;100.00;100867.88;10116858;28;20050;-69
2021/12/07 08:17:21;;;;;;;47.28;24.23;;;;;;;0.73;100.00;100870.38;10125941;28;20047;-70
2021/12/07 08:22:18;;;;;;;46.08;24.05;;;;;;;0.84;100.00;100872.16;10117023;28;20424;-69
2021/12/07 08:27:15;;;;;;;48.65;26.38;;;;;;;0.92;100.00;100879.78;10150105;28;20046;-69
2021/12/07 08:32:25;;;;;;;48.55;23.35;;;;;;;0.75;100.00;100879.03;10123954;28;20125;-69
2021/12/07 08:37:21;;;;;;;51.10;25.80;;;;;;;0.83;100.00;100875.88;10135857;28;20042;-69
2021/12/07 08:42:19;;;;;;;51.97;26.75;;;;;;;0.96;100.00;100869.34;10126039;28;20075;-70
2021/12/07 08:47:16;;;;;;;50.53;25.23;;;;;;;0.95;100.00;100871.22;10117260;28;20410;-69
2021/12/07 08:52:33;;;;;;;48.17;25.65;;;;;;;0.93;100.00;100886.81;10114419;28;20420;-70
2021/12/07 09:02:45;;;;;;;47.38;24.92;;;;;;;1.01;100.00;100893.63;10114548;28;20047;-69
2021/12/07 09:07:41;;;;;;;47.45;24.88;;;;;;;1.18;100.00;100891.69;10121805;28;20677;-69
2021/12/07 09:12:38;;;;;;;46.45;24.30;;;;;;;1.21;100.00;100901.16;10115044;28;20074;-69
2021/12/07 09:17:35;;;;;;;45.75;25.30;;;;;;;1.22;100.00;100911.66;10133806;28;20085;-69
2021/12/07 09:22:32;;;;;;;46.33;24.48;;;;;;;1.36;100.00;100922.88;10116618;28;20055;-69
2021/12/07 09:27:33;;;;;;;48.50;25.38;;;;;;;1.41;100.00;100920.25;10110816;28;20047;-68
2021/12/07 09:32:32;;;;;;;48.45;26.75;;;;;;;1.45;100.00;100915.97;10114824;28;20058;-70
2021/12/07 09:37:29;;;;;;;48.13;25.33;;;;;;;1.42;100.00;100915.69;10093134;28;20070;-69
2021/12/07 09:42:26;;;;;;;48.60;26.08;;;;;;;1.41;100.00;100909.47;10131165;28;20054;-70
2021/12/07 09:47:22;;;;;;;46.17;24.70;;;;;;;1.32;100.00;100907.47;10129736;28;20081;-69
2021/12/07 09:52:19;;;;;;;45.95;25.45;;;;;;;1.35;100.00;100905.09;10126199;28;20046;-70
2021/12/07 09:57:15;;;;;;;47.53;23.95;;;;;;;1.31;100.00;100909.34;10102645;28;20075;-70
2021/12/07 10:02:12;;;;;;;49.83;26.27;;;;;;;1.37;100.00;100910.22;10100850;28;20134;-70
2021/12/07 10:07:09;;;;;;;45.22;23.35;;;;;;;1.38;100.00;100926.16;10107065;28;20142;-70
2021/12/07 10:12:06;;;;;;;43.65;23.88;;;;;;;1.32;100.00;100915.56;10135530;28;20039;-69
2021/12/07 10:17:02;;;;;;;52.85;27.15;;;;;;;1.36;100.00;100912.09;10119037;28;20109;-69
2021/12/07 10:22:13;;;;;;;44.78;24.95;;;;;;;1.47;100.00;100903.09;10137536;28;20058;-70
2021/12/07 10:27:10;;;;;;;47.75;24.13;;;;;;;1.43;100.00;100896.56;10134696;28;20081;-70
2021/12/07 10:32:08;;;;;;;47.17;24.65;;;;;;;1.26;100.00;100895.84;10138315;28;20097;-70
2021/12/07 10:37:14;;;;;;;43.58;23.15;;;;;;;1.24;100.00;100881.81;10134237;28;20046;-70
2021/12/07 10:42:18;;;;;;;43.50;23.35;;;;;;;1.38;100.00;100861.47;10127335;28;20066;-69
2021/12/07 10:47:30;;;;;;;50.30;25.70;;;;;;;1.44;100.00;100855.09;10117865;28;20075;-69
2021/12/07 10:52:32;;;;;;;44.17;23.50;;;;;;;1.58;100.00;100865.44;10120500;28;20073;-69
2021/12/07 10:57:34;;;;;;;43.40;24.17;;;;;;;1.67;100.00;100874.69;10130381;28;20075;-69
2021/12/07 11:02:34;;;;;;;48.22;24.90;;;;;;;1.62;100.00;100882.75;10120215;28;20470;-69
2021/12/07 11:07:31;;;;;;;39.63;21.48;;;;;;;1.66;100.00;100887.38;10124307;28;20071;-69
2021/12/07 11:12:34;;;;;;;43.90;26.40;;;;;;;1.64;100.00;100896.78;10115220;28;20043;-69
2021/12/07 11:17:33;;;;;;;41.05;22.60;;;;;;;1.59;100.00;100877.88;10118248;28;20417;-69
2021/12/07 11:22:33;;;;;;;46.00;23.77;;;;;;;1.52;100.00;100888.03;10110358;28;20108;-70
2021/12/07 11:32:54;;;;;;;47.67;23.77;;;;;;;1.65;100.00;100888.47;10088823;28;20100;-70
2021/12/07 11:37:50;;;;;;;52.50;24.25;;;;;;;1.74;100.00;100875.34;10108349;28;20046;-70
2021/12/07 11:42:47;;;;;;;44.67;23.23;;;;;;;1.72;100.00;100861.31;10118856;28;20050;-70
2021/12/07 11:47:49;;;;;;;42.42;21.15;;;;;;;1.60;100.00;100855.22;10116207;28;20110;-70
2021/12/07 11:52:49;;;;;;;46.33;23.48;;;;;;;1.78;100.00;100862.94;10114672;28;20138;-70
2021/12/07 11:57:46;;;;;;;51.20;23.92;;;;;;;1.91;100.00;100869.03;10131507;28;20047;-70
2021/12/07 12:02:43;;;;;;;45.72;24.95;;;;;;;2.04;100.00;100863.19;10116883;28;20050;-70
2021/12/07 12:07:41;;;;;;;44.40;23.70;;;;;;;1.94;100.00;100869.31;10112717;28;20046;-70
2021/12/07 12:13:15;;;;;;;43.20;23.30;;;;;;;1.95;100.00;100875.50;10116825;28;20448;-69
2021/12/07 12:18:44;;;;;;;46.08;23.40;;;;;;;2.02;100.00;100868.00;10127457;28;20042;-70
2021/12/07 12:23:59;;;;;;;44.83;25.80;;;;;;;2.04;100.00;100864.00;10115716;28;20144;-71
2021/12/07 12:29:02;;;;;;;44.63;25.23;;;;;;;1.99;100.00;100877.44;10130264;28;20664;-71
2021/12/07 12:33:58;;;;;;;43.13;23.88;;;;;;;1.95;100.00;100886.28;10104277;28;20502;-70
2021/12/07 12:39:02;;;;;;;43.95;25.23;;;;;;;2.04;100.00;100906.34;10102521;28;20464;-69
2021/12/07 12:44:10;;;;;;;48.35;24.95;;;;;;;1.94;100.00;100914.34;10105476;28;20081;-69
2021/12/07 12:49:11;;;;;;;40.78;23.33;;;;;;;2.01;100.00;100896.06;10099534;28;20042;-70
2021/12/07 12:54:08;;;;;;;41.42;23.00;;;;;;;2.03;100.00;100899.31;10102029;28;20082;-69
2021/12/07 12:59:11;;;;;;;45.72;24.60;;;;;;;1.99;100.00;100887.41;10121702;28;20128;-70
2021/12/07 13:04:12;;;;;;;50.15;25.67;;;;;;;2.01;100.00;100877.19;10112801;28;20096;-69
2021/12/07 13:09:19;;;;;;;49.17;23.75;;;;;;;2.02;100.00;100881.50;10120458;28;20512;-70
2021/12/07 13:14:22;;;;;;;47.00;24.52;;;;;;;1.85;100.00;100871.66;10130643;28;20097;-69
2021/12/07 13:19:19;;;;;;;48.08;26.33;;;;;;;1.97;100.00;100867.97;10120089;28;20054;-69
2021/12/07 13:24:30;;;;;;;46.80;24.20;;;;;;;2.01;100.00;100842.13;10112770;28;20046;-69
2021/12/07 13:29:26;;;;;;;46.20;23.50;;;;;;;1.84;100.00;100851.16;10089898;28;20051;-69
2021/12/07 13:34:30;;;;;;;45.17;25.20;;;;;;;1.99;100.00;100849.66;10097682;28;20109;-69
2021/12/07 13:39:33;;;;;;;48.67;24.75;;;;;;;1.93;100.00;100853.38;10121509;28;20050;-69
2021/12/07 13:44:56;;;;;;;49.58;26.75;;;;;;;1.95;100.00;100853.94;10113060;28;20038;-70
2021/12/07 13:49:59;;;;;;;46.75;26.67;;;;;;;1.88;100.00;100854.97;10104166;28;20047;-70
2021/12/07 13:54:58;;;;;;;46.50;24.38;;;;;;;1.79;100.00;100867.28;10116603;28;20085;-70
2021/12/07 14:00:06;;;;;;;45.22;23.55;;;;;;;1.76;100.00;100866.97;10118702;28;20505;-70
2021/12/07 14:05:11;;;;;;;43.97;23.77;;;;;;;1.88;100.00;100854.97;10116434;28;20089;-70
2021/12/07 14:10:17;;;;;;;46.65;24.50;;;;;;;1.88;100.00;100848.75;10123258;28;20076;-70
2021/12/07 14:15:23;;;;;;;48.50;25.67;;;;;;;1.79;100.00;100840.34;10124912;28;20055;-69
2021/12/07 14:20:33;;;;;;;46.10;24.30;;;;;;;1.80;100.00;100863.53;10121241;28;20497;-68
2021/12/07 14:25:29;;;;;;;47.58;25.48;;;;;;;1.92;100.00;100870.63;10123540;28;20039;-68
2021/12/07 14:30:27;;;;;;;51.45;26.00;;;;;;;1.87;100.00;100874.09;10127079;28;20075;-69
2021/12/07 14:35:24;;;;;;;49.20;25.70;;;;;;;1.87;100.00;100871.41;10132043;28;20062;-70
2021/12/07 14:40:20;;;;;;;48.15;25.50;;;;;;;1.76;100.00;100881.25;10136137;28;20050;-69
2021/12/07 14:45:37;;;;;;;49.92;25.60;;;;;;;1.71;100.00;100886.63;10114336;28;20123;-70
2021/12/07 14:50:34;;;;;;;53.55;27.98;;;;;;;1.71;100.00;100881.22;10114370;28;20142;-70
2021/12/07 14:55:30;;;;;;;52.83;28.08;;;;;;;1.68;100.00;100876.34;10109084;28;20136;-69
2021/12/07 15:00:27;;;;;;;53.70;28.48;;;;;;;1.65;100.00;100868.78;10121255;28;20555;-70
2021/12/07 15:05:23;;;;;;;51.22;27.13;;;;;;;1.64;100.00;100864.44;10119443;28;20074;-70
2021/12/07 15:10:20;;;;;;;52.42;27.25;;;;;;;1.66;100.00;100865.00;10123981;28;20046;-71
2021/12/07 15:15:17;;;;;;;56.10;28.13;;;;;;;1.75;100.00;100865.38;10129377;28;20481;-70
2021/12/07 15:20:14;;;;;;;51.10;27.05;;;;;;;1.60;100.00;100868.72;10106428;28;20520;-70
2021/12/07 15:25:14;;;;;;;50.03;26.30;;;;;;;1.71;100.00;100870.44;10122392;28;20050;-70
2021/12/07 15:30:11;;;;;;;54.95;26.98;;;;;;;1.75;100.00;100855.38;10113758;28;20122;-70
2021/12/07 15:35:08;;;;;;;50.80;27.00;;;;;;;1.61;100.00;100843.41;10129109;28;20097;-70
2021/12/07 15:40:09;;;;;;;49.17;26.42;;;;;;;1.59;100.00;100834.75;10121725;28;20050;-70
2021/12/07 15:45:09;;;;;;;53.30;27.92;;;;;;;1.51;100.00;100837.88;10101408;28;20097;-71
2021/12/07 15:50:12;;;;;;;57.95;30.98;;;;;;;1.52;100.00;100828.75;10115131;28;20179;-70
2021/12/07 15:55:25;;;;;;;;;;;;;;;1.46;100.00;100826.03;10121598;28;20424;-70
2021/12/07 16:00:30;;;;;;;52.88;28.35;;;;;;;1.40;100.00;100829.72;10124003;28;19930;-70
2021/12/07 16:05:34;;;;;;;56.25;29.33;;;;;;;1.39;100.00;100825.41;10112386;28;20082;-71
2021/12/07 16:10:31;;;;;;;56.33;29.75;;;;;;;1.38;100.00;100818.38;10116964;28;20047;-69
2021/12/07 16:15:28;;;;;;;61.53;29.83;;;;;;;1.37;100.00;100822.16;10119466;28;20077;-69
2021/12/07 16:20:25;;;;;;;56.72;31.23;;;;;;;1.38;100.00;100806.78;10129533;28;20465;-69
2021/12/07 16:25:22;;;;;;;58.95;29.45;;;;;;;1.41;100.00;100801.69;10124438;28;20097;-69
2021/12/07 16:30:19;;;;;;;56.92;29.40;;;;;;;1.40;100.00;100800.06;10127489;28;20050;-69
2021/12/07 16:35:15;;;;;;;54.67;30.83;;;;;;;1.42;100.00;100800.63;10123329;28;20416;-69
2021/12/07 16:40:16;;;;;;;59.80;29.85;;;;;;;1.54;100.00;100788.91;10114651;28;20090;-69
2021/12/07 16:45:15;;;;;;;55.15;30.30;;;;;;;1.58;100.00;100801.59;10121775;28;20038;-68
2021/12/07 16:50:14;;;;;;;58.17;30.52;;;;;;;1.50;100.00;100787.78;10105795;28;20097;-69
2021/12/07 16:55:19;;;;;;;57.47;29.63;;;;;;;1.55;100.00;100795.91;10104947;28;20114;-69
2021/12/07 17:00:22;;;;;;;53.92;27.77;;;;;;;1.50;100.00;100809.34;10097308;28;20096;-69
2021/12/07 17:05:25;;;;;;;56.03;28.50;;;;;;;1.54;100.00;100805.06;10095795;28;20043;-69
2021/12/07 17:10:22;;;;;;;;;;;;;;;1.47;100.00;100789.91;10097203;28;20125;-69
2021/12/07 17:15:22;;;;;;;53.03;27.80;;;;;;;1.46;100.00;100788.28;10090755;28;20540;-69
2021/12/07 17:20:21;;;;;;;59.50;30.88;;;;;;;1.38;100.00;100791.44;10099824;28;20677;-69
2021/12/07 17:25:18;;;;;;;52.45;29.75;;;;;;;1.50;100.00;100793.16;10097312;28;20050;-68
2021/12/07 17:30:20;;;;;;;54.35;30.13;;;;;;;1.57;100.00;100788.38;10085245;28;20402;-70
2021/12/07 17:35:17;;;;;;;48.35;27.88;;;;;;;1.59;100.00;100775.47;10098282;28;20093;-69
2021/12/07 17:40:18;;;;;;;53.35;26.90;;;;;;;1.63;100.00;100760.41;10097532;28;20053;-70
2021/12/07 17:45:16;;;;;;;54.00;26.85;;;;;;;1.52;100.00;100758.69;10085511;28;20489;-69
2021/12/07 17:50:13;;;;;;;49.10;27.02;;;;;;;1.64;100.00;100740.47;10089583;28;20497;-69
2021/12/07 17:55:16;;;;;;;53.97;27.80;;;;;;;1.71;100.00;100746.44;10080048;28;20071;-67
2021/12/07 18:00:24;;;;;;;;;;;;;;;1.67;100.00;100739.94;10088191;28;20051;-68
2021/12/07 18:05:22;;;;;;;50.50;27.08;;;;;;;1.57;100.00;100732.59;10096303;28;19957;-69
2021/12/07 18:10:23;;;;;;;50.33;27.20;;;;;;;1.67;100.00;100729.16;10090508;28;20458;-69
2021/12/07 18:15:23;;;;;;;49.08;26.35;;;;;;;1.67;100.00;100723.75;10092539;28;20850;-70
2021/12/07 18:20:25;;;;;;;53.17;26.95;;;;;;;1.49;100.00;100710.72;10095670;28;20059;-72
2021/12/07 18:25:27;;;;;;;53.67;28.10;;;;;;;1.66;100.00;100700.59;10093759;28;20043;-70
2021/12/07 18:30:34;;;;;;;49.10;26.63;;;;;;;1.67;100.00;100696.81;10086765;28;20502;-70
2021/12/07 18:35:33;;;;;;;49.03;25.48;;;;;;;1.62;100.00;100684.09;10089687;28;20489;-69
2021/12/07 18:40:30;;;;;;;45.78;25.17;;;;;;;1.66;100.00;100684.41;10090965;28;20519;-68
2021/12/07 18:45:26;;;;;;;49.78;27.10;;;;;;;1.60;100.00;100671.97;10103945;28;20055;-69
2021/12/07 18:50:23;;;;;;;50.35;27.23;;;;;;;1.66;100.00;100668.25;10102642;28;20527;-70
2021/12/07 18:55:20;;;;;;;47.85;26.30;;;;;;;1.73;100.00;100679.59;10103090;28;20153;-68
2021/12/07 19:00:20;;;;;;;48.85;25.85;;;;;;;1.66;100.00;100668.25;10077729;28;20070;-68
2021/12/07 19:05:18;;;;;;;45.13;25.00;;;;;;;1.64;100.00;100659.59;10095454;28;20046;-69
2021/12/07 19:10:17;;;;;;;45.97;25.63;;;;;;;1.64;100.00;100651.50;10110112;28;20579;-69
2021/12/07 19:15:14;;;;;;;52.30;26.30;;;;;;;1.62;100.00;100653.66;10110565;28;20043;-69
2021/12/07 19:20:14;;;;;;;47.33;25.10;;;;;;;1.65;100.00;100650.47;10105449;28;20078;-70
2021/12/07 19:25:11;;;;;;;48.22;26.88;;;;;;;1.62;100.00;100640.19;10106276;28;20493;-69
2021/12/07 19:30:14;;;;;;;45.35;24.90;;;;;;;1.54;100.00;100632.59;10107937;28;20113;-70
2021/12/07 19:35:10;;;;;;;37.50;20.23;;;;;;;1.76;100.00;100609.00;10111580;28;20046;-70
2021/12/07 19:40:32;;;;;;;46.60;24.17;;;;;;;1.78;100.00;100604.16;10104181;28;20341;-70
2021/12/07 19:45:30;;;;;;;46.92;25.33;;;;;;;1.76;100.00;100614.38;10107864;28;20102;-70
2021/12/07 19:50:32;;;;;;;45.08;25.10;;;;;;;1.72;100.00;100597.13;10097221;28;20067;-70
2021/12/07 19:55:35;;;;;;;45.88;24.65;;;;;;;1.64;100.00;100584.94;10102235;28;20081;-70
2021/12/07 20:00:38;;;;;;;45.50;25.27;;;;;;;1.70;100.00;100580.41;10102556;28;20413;-70
2021/12/07 20:05:35;;;;;;;47.75;24.80;;;;;;;1.73;100.00;100561.00;10104270;28;20070;-70
2021/12/07 20:10:33;;;;;;;44.50;24.20;;;;;;;1.72;100.00;100564.78;10110295;28;20502;-70
2021/12/07 20:15:31;;;;;;;46.50;25.83;;;;;;;1.73;100.00;100555.59;10106584;28;20634;-70
2021/12/07 20:20:29;;;;;;;42.03;23.85;;;;;;;1.86;100.00;100538.97;10113476;28;20458;-69
2021/12/07 20:25:26;;;;;;;43.40;23.92;;;;;;;1.78;100.00;100525.97;10095793;28;20149;-70
2021/12/07 20:30:22;;;;;;;42.85;24.65;;;;;;;1.82;100.00;100521.69;10088213;28;20128;-70
2021/12/07 20:35:19;;;;;;;40.80;22.67;;;;;;;1.80;100.00;100518.44;10099748;28;20047;-69
2021/12/07 20:40:21;;;;;;;39.10;24.23;;;;;;;1.77;100.00;100483.94;10095585;28;20057;-69
2021/12/07 20:45:18;;;;;;;43.13;23.85;;;;;;;1.68;100.00;100480.13;10107860;28;20102;-69
2021/12/07 20:50:14;;;;;;;44.35;24.33;;;;;;;1.60;100.00;100481.44;10106252;28;20109;-67
2021/12/07 20:55:11;;;;;;;41.42;24.52;;;;;;;1.75;100.00;100475.28;10105629;28;20136;-71
2021/12/07 21:00:10;;;;;;;44.72;26.65;;;;;;;1.83;100.00;100464.00;10094797;28;20487;-69
2021/12/07 21:05:08;;;;;;;46.08;25.73;;;;;;;1.82;100.00;100470.47;10109013;28;20108;-69
2021/12/07 21:10:10;;;;;;;48.88;27.17;;;;;;;1.62;100.00;100467.69;10102686;28;20061;-71
2021/12/07 21:15:13;;;;;;;49.92;25.85;;;;;;;1.58;100.00;100471.97;10100055;28;20058;-70
2021/12/07 21:20:10;;;;;;;46.25;26.33;;;;;;;1.64;100.00;100463.66;10129096;28;20043;-70
2021/12/07 21:25:07;;;;;;;46.22;25.20;;;;;;;1.64;100.00;100460.16;10111252;28;20465;-71
2021/12/07 21:30:07;;;;;;;47.08;25.65;;;;;;;1.72;100.00;100473.13;10119106;28;20059;-72
2021/12/07 21:35:05;;;;;;;47.63;27.08;;;;;;;1.69;100.00;100462.88;10119650;28;20046;-72
2021/12/07 21:40:03;;;;;;;47.38;25.30;;;;;;;1.48;100.00;100461.97;10103415;28;20054;-72
2021/12/07 21:45:06;;;;;;;49.55;27.85;;;;;;;1.63;100.00;100455.84;10117283;28;22271;-70
2021/12/07 21:50:06;;;;;;;48.72;26.02;;;;;;;1.49;100.00;100447.44;10130128;28;20058;-70
2021/12/07 21:55:06;;;;;;;45.25;26.63;;;;;;;1.58;100.00;100439.66;10112409;28;20086;-70
2021/12/07 22:00:06;;;;;;;46.70;25.45;;;;;;;1.62;100.00;100449.63;10123533;28;20133;-69
2021/12/07 22:05:04;;;;;;;47.85;27.25;;;;;;;1.58;100.00;100455.81;10111075;28;20084;-69
2021/12/07 22:10:04;;;;;;;51.38;25.90;;;;;;;1.57;100.00;100454.22;10107672;28;20042;-71
2021/12/07 22:15:00;;;;;;;50.78;27.58;;;;;;;1.45;100.00;100441.78;10109451;28;20043;-70
2021/12/07 22:19:57;;;;;;;53.25;28.52;;;;;;;1.50;100.00;100442.88;10124835;28;20394;-70
2021/12/07 22:24:54;;;;;;;54.70;27.80;;;;;;;1.48;100.00;100429.66;10120901;28;20046;-70
2021/12/07 22:29:51;;;;;;;48.80;26.25;;;;;;;1.49;100.00;100425.09;10125169;28;20055;-70
2021/12/07 22:34:47;;;;;;;53.40;27.75;;;;;;;1.45;100.00;100409.44;10129891;28;20039;-71
2021/12/07 22:39:45;;;;;;;53.35;27.90;;;;;;;1.34;100.00;100405.09;10123061;28;20043;-71
2021/12/07 22:44:42;;;;;;;52.20;28.35;;;;;;;1.50;100.00;100395.16;10116758;28;20043;-72
2021/12/07 22:49:39;;;;;;;53.67;29.10;;;;;;;1.45;100.00;100385.19;10122580;28;20043;-70
2021/12/07 22:54:36;;;;;;;52.05;27.65;;;;;;;1.41;100.00;100386.78;10129726;28;20408;-69
2021/12/07 22:59:33;;;;;;;55.47;29.42;;;;;;;1.38;100.00;100384.63;10122298;28;20082;-68
2021/12/07 23:04:29;;;;;;;54.45;28.95;;;;;;;1.30;100.00;100362.78;10121139;28;20503;-68
2021/12/07 23:09:26;;;;;;;53.80;26.67;;;;;;;1.27;100.00;100337.97;10123553;28;20074;-67
2021/12/07 23:14:23;;;;;;;55.83;27.45;;;;;;;1.21;100.00;100314.03;10122566;28;20157;-70
2021/12/07 23:19:20;;;;;;;55.30;29.38;;;;;;;1.13;100.00;100303.75;10118406;28;20097;-70
2021/12/07 23:24:19;;;;;;;51.20;27.70;;;;;;;1.28;100.00;100287.66;10124528;28;20097;-71
2021/12/07 23:29:17;;;;;;;53.55;25.67;;;;;;;1.31;100.00;100273.63;10131954;28;20050;-69
2021/12/07 23:34:14;;;;;;;48.30;25.05;;;;;;;1.30;100.00;100261.25;10121436;28;20066;-70
2021/12/07 23:39:11;;;;;;;51.78;27.50;;;;;;;1.33;100.00;100239.16;10122579;28;20050;-67
2021/12/07 23:44:08;;;;;;;58.65;29.63;;;;;;;1.23;100.00;100249.91;10118027;28;20047;-70
2021/12/07 23:49:06;;;;;;;53.78;27.45;;;;;;;1.17;100.00;100234.84;10117684;28;20077;-69
2021/12/07 23:54:03;;;;;;;60.28;27.63;;;;;;;1.16;100.00;100217.03;10115262;28;20106;-70
2021/12/07 23:58:59;;;;;;;53.95;27.63;;;;;;;0.99;100.00;100207.31;10129676;28;20090;-70
